Time;durP1;ratioP1;P1;durP2;ratioP2;P2;SDS_P1;SDS_P2;PMS_P1;PMS_P2;Temp;Humidity;BMP_temperature;BMP_pressure;BME280_temperature;BME280_humidity;BME280_pressure;Samples;Min_cycle;Max_cycle;Signal;HPM_P1;HPM_P2
2021/07/24 00:01:16;;;;;;;10.27;8.45;;;19.60;68.80;;;;;;4963981;28;20054;-65
2021/07/24 00:03:42;;;;;;;12.63;8.38;;;19.50;68.90;;;;;;4968789;28;20598;-65
2021/07/24 00:06:08;;;;;;;11.77;8.75;;;19.50;69.20;;;;;;4965623;28;20062;-65
2021/07/24 00:08:34;;;;;;;16.60;8.32;;;19.40;69.20;;;;;;4968216;28;20026;-64
2021/07/24 00:11:07;;;;;;;10.00;8.65;;;19.40;69.40;;;;;;4964905;28;20427;-65
2021/07/24 00:13:39;;;;;;;12.23;9.20;;;19.40;70.40;;;;;;4965998;28;20030;-65
2021/07/24 00:16:05;;;;;;;11.80;9.43;;;19.40;70.40;;;;;;4967356;28;20034;-64
2021/07/24 00:18:32;;;;;;;14.77;9.15;;;19.40;69.80;;;;;;4968617;28;20304;-65
2021/07/24 00:20:59;;;;;;;12.15;8.70;;;19.40;70.00;;;;;;4962880;28;20031;-65
2021/07/24 00:23:25;;;;;;;11.77;8.68;;;19.40;70.00;;;;;;4964527;28;20034;-65
2021/07/24 00:25:50;;;;;;;11.95;8.48;;;19.30;69.90;;;;;;4967302;28;20553;-65
2021/07/24 00:28:16;;;;;;;12.02;9.40;;;19.40;69.90;;;;;;4966256;28;20031;-65
2021/07/24 00:30:42;;;;;;;11.25;8.77;;;19.40;70.00;;;;;;4965997;28;20105;-65
2021/07/24 00:33:08;;;;;;;11.98;8.40;;;19.40;70.00;;;;;;4966041;28;20035;-65
2021/07/24 00:35:35;;;;;;;13.52;8.82;;;19.40;70.00;;;;;;4963362;28;20085;-65
2021/07/24 00:38:02;;;;;;;16.02;9.68;;;19.40;70.20;;;;;;4968341;28;20046;-65
2021/07/24 00:40:30;;;;;;;15.95;8.88;;;19.30;70.20;;;;;;4966871;28;20038;-65
2021/07/24 00:42:58;;;;;;;11.90;8.75;;;19.30;70.20;;;;;;4965803;28;20031;-64
2021/07/24 00:45:25;;;;;;;12.73;9.07;;;19.30;70.30;;;;;;4960863;28;20058;-64
2021/07/24 00:47:54;;;;;;;10.82;8.63;;;19.20;70.30;;;;;;4964089;28;20042;-65
2021/07/24 00:50:20;;;;;;;13.40;9.32;;;19.20;70.70;;;;;;4965673;28;20205;-64
2021/07/24 00:52:48;;;;;;;13.13;9.55;;;19.10;70.70;;;;;;4965360;28;20039;-64
2021/07/24 00:55:15;;;;;;;11.40;8.88;;;19.10;70.80;;;;;;4965316;28;20031;-64
2021/07/24 00:57:42;;;;;;;11.32;8.57;;;19.10;71.60;;;;;;4967314;28;20156;-64
2021/07/24 01:00:09;;;;;;;11.40;9.48;;;19.10;70.90;;;;;;4966426;28;20126;-64
2021/07/24 01:02:36;;;;;;;10.63;8.90;;;19.10;70.90;;;;;;4959681;28;20070;-64
2021/07/24 01:05:03;;;;;;;11.55;8.80;;;19.10;70.90;;;;;;4965929;28;20096;-64
2021/07/24 01:07:33;;;;;;;14.48;9.07;;;19.10;71.10;;;;;;4962553;28;20694;-64
2021/07/24 01:09:58;;;;;;;9.18;8.18;;;19.10;70.90;;;;;;4965987;28;20046;-65
2021/07/24 01:12:24;;;;;;;10.82;8.90;;;19.10;70.60;;;;;;4962877;28;20043;-64
2021/07/24 01:14:50;;;;;;;12.13;9.23;;;19.10;70.60;;;;;;4966070;28;20031;-64
2021/07/24 01:17:16;;;;;;;13.32;9.77;;;19.10;70.70;;;;;;4964100;28;20038;-65
2021/07/24 01:19:42;;;;;;;10.63;8.65;;;19.10;70.60;;;;;;4963338;28;20081;-66
2021/07/24 01:22:08;;;;;;;15.18;9.95;;;19.10;70.30;;;;;;4963169;28;20042;-64
2021/07/24 01:24:34;;;;;;;13.40;10.38;;;19.10;70.60;;;;;;4965221;28;20035;-65
2021/07/24 01:27:04;;;;;;;17.40;10.30;;;19.10;70.70;;;;;;4966184;28;20065;-65
2021/07/24 01:29:29;;;;;;;14.55;10.60;;;19.10;70.80;;;;;;4969937;28;20043;-64
2021/07/24 01:31:56;;;;;;;11.82;10.00;;;19.10;70.80;;;;;;4970659;28;20035;-64
2021/07/24 01:34:21;;;;;;;14.05;10.43;;;19.10;70.90;;;;;;4968544;28;20033;-64
2021/07/24 01:36:47;;;;;;;14.07;9.88;;;19.00;71.00;;;;;;4963455;28;20039;-65
2021/07/24 01:39:13;;;;;;;14.32;11.07;;;19.00;71.10;;;;;;4968649;28;20130;-64
2021/07/24 01:41:45;;;;;;;14.65;10.80;;;19.00;71.10;;;;;;4970088;28;20034;-65
2021/07/24 01:44:12;;;;;;;14.30;11.15;;;18.90;71.80;;;;;;4971075;28;20434;-64
2021/07/24 01:46:37;;;;;;;13.50;11.00;;;18.90;71.40;;;;;;4967873;28;20031;-65
2021/07/24 01:55:01;;;;;;;13.52;10.65;;;18.80;72.60;;;;;;4965565;28;20104;-65
2021/07/24 01:57:33;;;;;;;13.23;10.00;;;18.70;72.80;;;;;;4970246;28;20135;-64
2021/07/24 02:00:10;;;;;;;13.25;10.18;;;18.70;72.00;;;;;;4971077;28;20125;-64
2021/07/24 02:02:37;;;;;;;12.02;9.88;;;18.60;72.60;;;;;;4983597;28;20058;-64
2021/07/24 02:05:05;;;;;;;11.57;9.55;;;18.60;71.90;;;;;;4966725;28;20058;-64
2021/07/24 02:07:36;;;;;;;12.23;9.05;;;18.60;72.00;;;;;;4969577;28;21464;-64
2021/07/24 02:10:03;;;;;;;12.27;8.98;;;18.60;72.00;;;;;;4966859;28;20070;-64
2021/07/24 02:12:28;;;;;;;11.18;9.05;;;18.60;72.10;;;;;;4966401;28;20215;-65
2021/07/24 02:14:55;;;;;;;13.10;10.27;;;18.60;72.10;;;;;;4970519;28;20557;-65
2021/07/24 02:17:22;;;;;;;18.05;11.02;;;18.60;72.20;;;;;;4968775;28;20098;-65
2021/07/24 02:19:48;;;;;;;14.70;10.68;;;18.60;72.20;;;;;;4964149;28;20395;-64
2021/07/24 02:22:13;;;;;;;17.17;11.57;;;18.60;72.00;;;;;;4967205;28;20511;-64
2021/07/24 02:24:39;;;;;;;14.98;11.18;;;18.60;72.20;;;;;;4967773;28;20035;-64
2021/07/24 02:27:08;;;;;;;17.23;11.27;;;18.60;72.20;;;;;;4970397;28;20034;-65
2021/07/24 02:29:34;;;;;;;16.13;10.75;;;18.50;72.50;;;;;;4966028;28;20038;-64
2021/07/24 02:31:59;;;;;;;15.23;11.60;;;18.50;72.30;;;;;;4965890;28;20038;-64
2021/07/24 02:34:25;;;;;;;19.45;11.13;;;18.60;72.50;;;;;;4967261;28;20038;-65
2021/07/24 02:36:51;;;;;;;13.52;10.05;;;18.50;72.50;;;;;;4967102;28;20405;-64
2021/07/24 02:39:16;;;;;;;14.02;11.00;;;18.50;72.50;;;;;;4963875;28;20117;-64
2021/07/24 02:41:42;;;;;;;14.20;10.73;;;18.50;72.70;;;;;;4970523;28;20138;-65
2021/07/24 02:44:07;;;;;;;14.05;10.70;;;18.50;72.90;;;;;;4968247;28;20374;-65
2021/07/24 02:46:33;;;;;;;15.85;10.93;;;18.50;73.00;;;;;;4967574;28;20035;-64
2021/07/24 02:48:58;;;;;;;15.98;11.25;;;18.50;73.00;;;;;;4966426;28;20027;-65
2021/07/24 02:51:24;;;;;;;14.05;11.30;;;18.50;73.00;;;;;;4965600;28;20066;-64
2021/07/24 02:53:50;;;;;;;14.85;11.55;;;18.50;73.10;;;;;;4966130;28;20042;-65
2021/07/24 02:56:15;;;;;;;19.33;11.40;;;18.40;73.10;;;;;;4961338;28;20034;-64
2021/07/24 02:58:41;;;;;;;13.73;10.75;;;18.40;73.30;;;;;;4965419;28;20038;-64
2021/07/24 03:01:07;;;;;;;16.20;11.93;;;18.40;73.40;;;;;;4967531;28;20871;-64
2021/07/24 03:03:34;;;;;;;18.75;12.65;;;18.40;73.80;;;;;;4968165;28;20031;-64
2021/07/24 03:06:00;;;;;;;17.70;12.32;;;18.40;73.90;;;;;;4967176;28;20114;-64
2021/07/24 03:08:25;;;;;;;18.23;11.82;;;18.40;73.80;;;;;;4966636;28;20125;-64
2021/07/24 03:10:51;;;;;;;14.82;11.68;;;18.50;73.80;;;;;;4962232;28;20502;-64
2021/07/24 03:13:16;;;;;;;16.13;12.35;;;18.50;73.70;;;;;;4966646;28;20571;-65
2021/07/24 03:15:42;;;;;;;15.52;12.77;;;18.50;73.70;;;;;;4966551;28;20027;-64
2021/07/24 03:18:07;;;;;;;18.65;12.52;;;18.50;73.70;;;;;;4969097;28;20043;-64
2021/07/24 03:20:33;;;;;;;16.35;13.00;;;18.60;73.70;;;;;;4962909;28;20097;-64
2021/07/24 03:23:00;;;;;;;19.08;12.98;;;18.60;73.80;;;;;;4962416;28;20126;-64
2021/07/24 03:25:27;;;;;;;16.52;12.68;;;18.60;73.60;;;;;;4964240;28;20038;-64
2021/07/24 03:27:53;;;;;;;15.93;12.32;;;18.60;73.70;;;;;;4968693;28;22174;-65
2021/07/24 03:30:19;;;;;;;17.60;11.95;;;18.60;73.50;;;;;;4967573;28;20489;-65
2021/07/24 03:32:45;;;;;;;17.83;11.07;;;18.60;74.40;;;;;;4967161;28;20046;-64
2021/07/24 03:35:10;;;;;;;14.98;12.07;;;18.60;73.40;;;;;;4965670;28;22250;-64
2021/07/24 03:37:36;;;;;;;19.23;12.77;;;18.50;73.50;;;;;;4968609;28;20505;-65
2021/07/24 03:40:02;;;;;;;16.05;12.32;;;18.60;73.70;;;;;;4964891;28;20374;-64
2021/07/24 03:42:27;;;;;;;17.75;12.02;;;18.60;73.90;;;;;;4966317;28;20049;-64
2021/07/24 03:44:53;;;;;;;16.83;12.30;;;18.60;73.90;;;;;;4966773;28;20097;-64
2021/07/24 03:47:18;;;;;;;17.05;11.75;;;18.60;73.90;;;;;;4967739;28;20034;-64
2021/07/24 03:49:44;;;;;;;16.50;11.68;;;18.60;73.90;;;;;;4968146;28;20035;-65
2021/07/24 03:52:10;;;;;;;20.38;12.73;;;18.60;73.90;;;;;;4964404;28;20049;-64
2021/07/24 03:54:35;;;;;;;18.77;12.50;;;18.60;74.40;;;;;;4966683;28;20034;-64
2021/07/24 03:57:01;;;;;;;22.48;13.30;;;18.70;74.40;;;;;;4963507;28;20059;-63
2021/07/24 03:59:26;;;;;;;20.10;12.95;;;18.70;74.60;;;;;;4968577;28;20031;-64
2021/07/24 04:01:54;;;;;;;15.88;12.35;;;18.70;75.10;;;;;;4965608;28;20045;-64
2021/07/24 04:04:20;;;;;;;18.42;13.60;;;18.70;75.20;;;;;;4960830;28;20203;-64
2021/07/24 04:06:46;;;;;;;17.55;12.32;;;18.80;75.30;;;;;;4966700;28;20031;-64
2021/07/24 04:09:12;;;;;;;19.50;13.23;;;18.80;75.20;;;;;;4965940;28;20051;-64
2021/07/24 04:11:38;;;;;;;16.98;12.77;;;18.80;75.20;;;;;;4964393;28;20089;-64
2021/07/24 04:14:04;;;;;;;20.08;13.13;;;18.80;75.10;;;;;;4967088;28;20049;-64
2021/07/24 04:16:33;;;;;;;17.63;12.32;;;18.90;75.20;;;;;;4967166;28;20185;-64
2021/07/24 04:19:00;;;;;;;20.70;14.48;;;18.90;75.10;;;;;;4962309;28;20054;-64
2021/07/24 04:21:25;;;;;;;17.77;12.85;;;18.90;75.00;;;;;;4966548;28;20043;-63
2021/07/24 04:23:51;;;;;;;18.58;12.95;;;18.90;75.10;;;;;;4964108;28;20142;-64
2021/07/24 04:26:17;;;;;;;19.55;14.75;;;19.00;75.20;;;;;;4964690;28;20030;-64
2021/07/24 04:28:42;;;;;;;17.25;13.35;;;19.00;75.50;;;;;;4963731;28;20039;-63
2021/07/24 04:31:13;;;;;;;18.55;13.98;;;19.00;75.50;;;;;;4966450;28;20138;-64
2021/07/24 04:33:38;;;;;;;20.63;14.27;;;19.00;76.00;;;;;;4960454;28;20746;-64
2021/07/24 04:36:04;;;;;;;16.13;13.25;;;19.00;75.60;;;;;;4966760;28;20043;-64
2021/07/24 04:38:30;;;;;;;20.10;14.10;;;19.10;75.60;;;;;;4966765;28;20058;-64
2021/07/24 04:40:55;;;;;;;16.98;13.73;;;19.00;75.40;;;;;;4964860;28;20031;-64
2021/07/24 04:43:21;;;;;;;17.80;13.85;;;19.00;75.40;;;;;;4964888;28;20094;-64
2021/07/24 04:45:46;;;;;;;19.23;14.68;;;19.00;75.40;;;;;;4964477;28;20089;-64
2021/07/24 04:48:12;;;;;;;20.38;15.23;;;19.00;75.60;;;;;;4966180;28;20888;-64
2021/07/24 04:50:50;;;;;;;17.27;13.25;;;19.00;76.00;;;;;;4961980;28;20043;-64
2021/07/24 04:53:17;;;;;;;17.63;13.30;;;18.90;76.30;;;;;;4978240;28;20094;-64
2021/07/24 04:55:44;;;;;;;16.88;12.88;;;18.90;75.60;;;;;;4963912;28;20125;-64
2021/07/24 04:58:10;;;;;;;16.45;13.27;;;18.90;75.50;;;;;;4964311;28;20087;-64
2021/07/24 05:00:46;;;;;;;17.25;13.55;;;18.90;75.70;;;;;;4965593;28;20595;-64
2021/07/24 05:03:16;;;;;;;17.20;13.10;;;18.90;76.00;;;;;;4963522;28;20093;-63
2021/07/24 05:05:42;;;;;;;15.43;13.30;;;18.90;76.00;;;;;;4969889;28;20520;-64
2021/07/24 05:08:09;;;;;;;17.77;13.50;;;18.90;75.70;;;;;;4969456;28;20511;-64
2021/07/24 05:10:35;;;;;;;22.25;13.90;;;18.90;75.60;;;;;;4971499;28;20123;-64
2021/07/24 05:13:01;;;;;;;16.35;12.48;;;18.90;75.30;;;;;;4966198;28;20035;-64
2021/07/24 05:15:27;;;;;;;17.63;13.65;;;19.00;75.30;;;;;;4969450;28;20050;-64
2021/07/24 05:17:52;;;;;;;18.33;13.38;;;19.00;75.40;;;;;;4969099;28;20054;-64
2021/07/24 05:20:18;;;;;;;16.90;12.77;;;19.00;75.40;;;;;;4965820;28;20054;-64
2021/07/24 05:22:43;;;;;;;15.95;12.65;;;19.00;75.40;;;;;;4986264;28;20042;-64
2021/07/24 05:25:10;;;;;;;18.40;13.93;;;19.10;75.40;;;;;;4990893;28;20701;-64
2021/07/24 05:27:36;;;;;;;18.08;13.35;;;19.10;75.40;;;;;;4989614;28;20593;-64
2021/07/24 05:30:02;;;;;;;17.77;13.73;;;19.10;75.40;;;;;;4986625;28;20117;-64
2021/07/24 05:32:28;;;;;;;18.02;13.10;;;19.20;75.40;;;;;;4989643;28;20034;-64
2021/07/24 05:34:53;;;;;;;17.42;13.80;;;19.10;75.40;;;;;;4988526;28;20571;-63
2021/07/24 05:37:19;;;;;;;17.95;13.07;;;19.10;75.60;;;;;;4977439;28;20127;-64
2021/07/24 05:39:45;;;;;;;18.48;13.50;;;19.20;75.70;;;;;;4967594;28;20039;-64
2021/07/24 05:42:11;;;;;;;19.17;13.63;;;19.20;75.90;;;;;;4966379;28;20038;-63
2021/07/24 05:44:36;;;;;;;23.77;13.15;;;19.30;75.80;;;;;;4966781;28;20081;-64
2021/07/24 05:47:04;;;;;;;18.60;13.20;;;19.40;75.80;;;;;;4986286;28;20070;-64
2021/07/24 05:49:29;;;;;;;18.75;13.48;;;19.50;75.60;;;;;;4985359;28;20038;-64
2021/07/24 05:51:55;;;;;;;15.90;13.60;;;19.60;75.80;;;;;;4986890;28;20089;-63
2021/07/24 05:54:22;;;;;;;14.57;12.68;;;19.60;76.20;;;;;;4987337;28;20058;-64
2021/07/24 05:56:49;;;;;;;16.73;13.13;;;19.70;74.90;;;;;;4988461;28;20077;-65
2021/07/24 05:59:15;;;;;;;19.75;13.13;;;19.70;74.90;;;;;;4987319;28;20065;-64
2021/07/24 06:01:40;;;;;;;15.88;12.15;;;19.70;74.60;;;;;;4979707;28;20129;-64
2021/07/24 06:04:08;;;;;;;25.48;15.18;;;19.70;74.40;;;;;;4985392;28;20042;-64
2021/07/24 06:06:34;;;;;;;18.52;13.77;;;19.70;74.30;;;;;;4981991;28;20104;-64
2021/07/24 06:08:59;;;;;;;18.85;13.32;;;19.70;74.30;;;;;;4986161;28;20165;-64
2021/07/24 06:11:25;;;;;;;22.25;13.30;;;19.70;74.20;;;;;;4985748;28;20623;-64
2021/07/24 06:13:51;;;;;;;20.48;13.73;;;19.80;74.10;;;;;;4986787;28;20441;-64
2021/07/24 06:16:16;;;;;;;19.05;14.57;;;19.80;74.00;;;;;;4986230;28;20038;-64
2021/07/24 06:18:42;;;;;;;18.33;12.75;;;19.80;74.20;;;;;;4984199;28;20043;-63
2021/07/24 06:21:16;;;;;;;17.67;12.88;;;19.80;74.30;;;;;;4984253;28;20564;-64
2021/07/24 06:23:42;;;;;;;16.97;12.70;;;19.80;75.10;;;;;;4983595;28;20031;-63
2021/07/24 06:26:08;;;;;;;17.38;14.25;;;19.80;74.70;;;;;;4986197;28;20026;-64
2021/07/24 06:28:34;;;;;;;18.08;14.07;;;19.70;74.90;;;;;;4984392;28;20039;-63
2021/07/24 06:31:05;;;;;;;17.00;13.65;;;19.70;75.10;;;;;;4983940;28;20085;-63
2021/07/24 06:33:32;;;;;;;17.40;12.65;;;19.70;76.10;;;;;;4988685;28;20038;-63
2021/07/24 06:35:59;;;;;;;18.95;15.63;;;19.70;76.00;;;;;;4986249;28;20039;-63
2021/07/24 06:38:26;;;;;;;19.30;14.85;;;19.70;76.50;;;;;;4972355;28;20042;-63
2021/07/24 06:40:52;;;;;;;18.27;14.55;;;19.70;77.70;;;;;;4973549;28;20537;-64
2021/07/24 06:43:18;;;;;;;20.70;14.20;;;19.70;76.90;;;;;;4970664;28;20042;-64
2021/07/24 06:45:43;;;;;;;21.10;13.30;;;19.70;76.90;;;;;;4975726;28;20046;-64
2021/07/24 06:48:09;;;;;;;17.05;14.32;;;19.70;77.00;;;;;;4975565;28;20609;-65
2021/07/24 06:50:35;;;;;;;18.17;14.57;;;19.70;77.20;;;;;;4975560;28;20149;-65
2021/07/24 06:53:00;;;;;;;19.23;14.70;;;19.70;77.20;;;;;;4981817;28;20088;-65
2021/07/24 06:55:26;;;;;;;20.98;15.00;;;19.80;77.50;;;;;;4975710;28;20045;-65
2021/07/24 06:57:52;;;;;;;19.60;14.82;;;19.80;77.30;;;;;;4975201;28;20046;-64
2021/07/24 07:00:18;;;;;;;17.33;13.30;;;19.80;77.20;;;;;;4975801;28;20065;-64
2021/07/24 07:02:44;;;;;;;20.45;14.35;;;19.80;77.20;;;;;;4973263;28;20118;-65
2021/07/24 07:05:10;;;;;;;19.30;14.40;;;19.80;77.50;;;;;;4978302;28;20109;-64
2021/07/24 07:07:36;;;;;;;20.15;13.73;;;19.80;77.30;;;;;;4973557;28;20034;-64
2021/07/24 07:10:03;;;;;;;19.65;14.70;;;19.80;77.60;;;;;;4975426;28;20042;-64
2021/07/24 07:12:29;;;;;;;18.88;15.07;;;19.90;78.40;;;;;;4973186;28;21049;-64
2021/07/24 07:14:54;;;;;;;18.63;14.55;;;19.90;78.60;;;;;;4972715;28;20034;-64
2021/07/24 07:17:21;;;;;;;21.38;14.23;;;19.90;78.70;;;;;;4972996;28;20046;-65
2021/07/24 07:19:48;;;;;;;17.08;13.70;;;20.00;78.70;;;;;;4973451;28;20428;-64
2021/07/24 07:22:13;;;;;;;17.08;13.27;;;20.10;78.70;;;;;;4977368;28;20045;-64
2021/07/24 07:24:39;;;;;;;17.40;13.85;;;20.10;78.50;;;;;;4974170;28;20042;-64
2021/07/24 07:27:05;;;;;;;17.67;14.15;;;20.20;78.20;;;;;;4978233;28;20505;-64
2021/07/24 07:29:30;;;;;;;19.75;13.93;;;20.30;78.40;;;;;;4973817;28;20078;-64
2021/07/24 07:31:56;;;;;;;21.92;14.25;;;20.40;78.00;;;;;;4976587;28;20504;-64
2021/07/24 07:34:22;;;;;;;19.38;15.15;;;20.50;77.90;;;;;;4975186;28;20034;-64
2021/07/24 07:36:48;;;;;;;21.45;14.73;;;20.60;77.60;;;;;;4957561;28;20046;-64
2021/07/24 07:39:14;;;;;;;22.88;16.13;;;20.80;77.30;;;;;;4948397;28;20061;-65
2021/07/24 07:41:40;;;;;;;20.30;15.52;;;20.80;77.00;;;;;;4956826;28;20391;-65
2021/07/24 07:44:05;;;;;;;20.58;14.95;;;20.90;76.60;;;;;;4963509;28;20061;-65
2021/07/24 07:46:31;;;;;;;19.25;15.15;;;21.00;76.30;;;;;;4964568;28;20058;-65
2021/07/24 07:48:57;;;;;;;18.25;13.57;;;21.10;75.60;;;;;;4958708;28;20037;-65
2021/07/24 07:51:23;;;;;;;20.33;16.02;;;21.10;75.30;;;;;;4958005;28;20122;-64
2021/07/24 07:53:48;;;;;;;31.35;22.10;;;21.20;75.10;;;;;;4955944;28;20039;-65
2021/07/24 07:56:14;;;;;;;25.33;18.17;;;21.20;75.00;;;;;;4956473;28;20042;-65
2021/07/24 07:58:40;;;;;;;20.30;15.07;;;21.20;74.60;;;;;;4953276;28;20125;-65
2021/07/24 08:01:11;;;;;;;17.70;14.10;;;21.30;74.40;;;;;;4955518;28;20047;-65
2021/07/24 08:03:38;;;;;;;23.02;15.18;;;21.30;74.60;;;;;;4951876;28;20039;-65
2021/07/24 08:06:03;;;;;;;22.00;15.40;;;21.30;74.20;;;;;;4951772;28;20034;-64
2021/07/24 08:08:29;;;;;;;21.33;16.17;;;21.30;74.50;;;;;;4951383;28;20039;-64
2021/07/24 08:10:54;;;;;;;20.20;14.15;;;21.30;74.70;;;;;;4952642;28;20066;-65
2021/07/24 08:13:20;;;;;;;22.20;15.75;;;21.20;75.10;;;;;;4951126;28;20044;-65
2021/07/24 08:15:48;;;;;;;19.40;13.25;;;21.20;75.10;;;;;;4951930;28;20577;-65
2021/07/24 08:18:14;;;;;;;25.20;18.20;;;21.20;75.10;;;;;;4953061;28;20047;-65
2021/07/24 08:20:41;;;;;;;19.65;14.77;;;21.10;75.20;;;;;;4956041;28;20043;-65
2021/07/24 08:23:08;;;;;;;22.20;16.00;;;21.00;75.50;;;;;;4953054;28;20837;-65
2021/07/24 08:25:37;;;;;;;20.50;14.05;;;21.00;75.40;;;;;;4951036;28;20043;-65
2021/07/24 08:28:04;;;;;;;19.33;13.98;;;20.90;75.70;;;;;;4946945;28;20518;-65
2021/07/24 08:30:30;;;;;;;17.42;13.32;;;20.80;75.40;;;;;;4946749;28;20514;-64
2021/07/24 08:32:55;;;;;;;15.63;12.02;;;20.80;75.60;;;;;;4952235;28;20050;-65
2021/07/24 08:35:21;;;;;;;15.40;12.32;;;20.70;75.60;;;;;;4952625;28;20039;-65
2021/07/24 08:37:47;;;;;;;15.70;12.25;;;20.70;76.30;;;;;;4952522;28;20067;-65
2021/07/24 08:40:14;;;;;;;13.13;10.40;;;20.60;76.40;;;;;;4950935;28;20433;-65
2021/07/24 08:42:40;;;;;;;11.73;9.93;;;20.50;76.30;;;;;;4950644;28;20493;-65
2021/07/24 08:45:07;;;;;;;13.88;10.00;;;20.40;76.60;;;;;;4952230;28;20510;-65
2021/07/24 08:47:32;;;;;;;13.38;10.90;;;20.40;77.50;;;;;;4953940;28;20612;-65
2021/07/24 08:50:03;;;;;;;14.57;11.60;;;20.40;78.00;;;;;;4950134;28;20110;-65
2021/07/24 08:52:30;;;;;;;15.57;11.75;;;20.40;79.10;;;;;;4953120;28;20145;-65
2021/07/24 08:54:58;;;;;;;18.23;11.68;;;20.40;78.80;;;;;;4952745;28;20570;-65
2021/07/24 08:57:28;;;;;;;14.38;10.52;;;20.40;78.90;;;;;;4965605;28;20035;-65
2021/07/24 08:59:56;;;;;;;12.45;10.60;;;20.40;78.90;;;;;;4962881;28;20031;-65
2021/07/24 09:02:29;;;;;;;13.25;10.73;;;20.40;79.60;;;;;;4964382;28;20043;-65
2021/07/24 09:04:59;;;;;;;14.95;11.52;;;20.50;80.10;;;;;;4966433;28;20211;-65
2021/07/24 09:07:29;;;;;;;14.90;11.05;;;20.50;79.90;;;;;;4963015;28;20642;-65
2021/07/24 09:09:58;;;;;;;14.63;11.05;;;20.60;80.50;;;;;;4961421;28;20097;-65
2021/07/24 09:12:24;;;;;;;14.43;11.02;;;20.70;80.00;;;;;;4962483;28;20090;-65
2021/07/24 09:14:51;;;;;;;14.27;10.65;;;20.80;80.60;;;;;;4964498;28;20122;-65
2021/07/24 09:17:19;;;;;;;13.82;10.55;;;21.00;80.50;;;;;;4965682;28;20453;-65
2021/07/24 09:19:45;;;;;;;15.63;10.68;;;21.10;81.80;;;;;;4962551;28;20306;-66
2021/07/24 09:22:27;;;;;;;14.15;10.65;;;21.20;81.10;;;;;;4962583;28;20131;-66
2021/07/24 09:25:14;;;;;;;12.90;10.32;;;21.40;82.70;;;;;;4963436;28;20587;-65
2021/07/24 09:27:41;;;;;;;13.15;10.27;;;21.60;82.20;;;;;;4964771;28;20081;-66
2021/07/24 09:30:08;;;;;;;15.18;10.70;;;21.80;81.30;;;;;;4965642;28;20468;-66
2021/07/24 09:32:34;;;;;;;15.20;10.63;;;21.90;81.90;;;;;;4965660;28;20031;-65
2021/07/24 09:35:00;;;;;;;12.75;9.32;;;22.10;81.30;;;;;;4965857;28;20093;-66
2021/07/24 09:37:30;;;;;;;14.75;10.05;;;22.30;81.00;;;;;;4964077;28;20047;-66
2021/07/24 09:40:18;;;;;;;11.27;9.10;;;22.50;80.90;;;;;;4964380;28;20529;-66
2021/07/24 09:42:44;;;;;;;12.82;9.93;;;22.70;80.60;;;;;;4960277;28;20049;-66
2021/07/24 09:45:10;;;;;;;16.00;9.77;;;22.80;80.30;;;;;;4959816;28;20066;-66
2021/07/24 09:47:36;;;;;;;15.30;10.80;;;22.90;80.20;;;;;;4963840;28;20042;-65
2021/07/24 09:50:15;;;;;;;14.85;10.30;;;23.00;79.80;;;;;;4969043;28;20039;-66
2021/07/24 09:52:49;;;;;;;13.23;10.27;;;23.20;80.20;;;;;;4968367;28;20031;-66
2021/07/24 09:55:24;;;;;;;14.18;10.85;;;23.20;79.60;;;;;;4968262;28;20027;-66
2021/07/24 09:57:51;;;;;;;13.35;10.95;;;23.30;79.60;;;;;;4964925;28;20043;-66
2021/07/24 10:00:38;;;;;;;13.60;10.43;;;23.40;79.00;;;;;;4967328;28;20030;-66
2021/07/24 10:03:08;;;;;;;12.18;10.30;;;23.50;78.90;;;;;;4965516;28;20449;-66
2021/07/24 10:05:38;;;;;;;13.90;10.35;;;23.60;78.90;;;;;;4967998;28;20035;-66
2021/07/24 10:08:14;;;;;;;14.10;10.77;;;23.60;78.50;;;;;;4963451;28;20034;-65
2021/07/24 10:10:41;;;;;;;12.52;10.40;;;23.60;78.90;;;;;;4963129;28;20110;-65
2021/07/24 10:13:12;;;;;;;13.88;10.95;;;23.70;77.90;;;;;;4969873;28;20069;-65
2021/07/24 10:15:43;;;;;;;13.15;10.82;;;23.80;77.90;;;;;;4968127;28;20111;-65
2021/07/24 10:18:13;;;;;;;13.80;9.73;;;23.80;77.00;;;;;;4965719;28;20126;-65
2021/07/24 10:20:47;;;;;;;14.32;9.90;;;23.80;76.80;;;;;;4967768;28;20046;-65
2021/07/24 10:23:14;;;;;;;12.57;9.20;;;23.90;77.20;;;;;;4968866;28;20093;-65
2021/07/24 10:26:03;;;;;;;12.73;10.30;;;24.00;75.90;;;;;;4969552;28;20129;-66
2021/07/24 10:28:38;;;;;;;11.50;9.40;;;24.10;74.90;;;;;;4968765;28;20027;-65
2021/07/24 10:31:13;;;;;;;11.02;9.75;;;24.20;75.40;;;;;;4970557;28;20536;-66
2021/07/24 10:33:39;;;;;;;12.43;9.90;;;24.30;76.00;;;;;;4968183;28;20524;-65
2021/07/24 10:36:18;;;;;;;12.05;9.23;;;24.40;75.50;;;;;;4969198;28;20211;-66
2021/07/24 10:38:58;;;;;;;12.60;9.32;;;24.50;75.90;;;;;;4967211;28;20043;-65
2021/07/24 10:41:24;;;;;;;11.07;8.52;;;24.60;74.40;;;;;;4970147;28;20081;-66
2021/07/24 10:43:58;;;;;;;10.57;8.85;;;24.70;74.00;;;;;;4968865;28;20079;-65
2021/07/24 10:46:45;;;;;;;;;;;24.80;73.20;;;;;;4967337;28;20409;-65
2021/07/24 10:49:23;;;;;;;10.85;8.30;;;25.00;73.60;;;;;;4968489;28;20431;-65
2021/07/24 10:51:55;;;;;;;10.35;8.15;;;25.00;72.10;;;;;;4966160;28;20033;-66
2021/07/24 10:54:22;;;;;;;10.35;8.23;;;25.10;70.70;;;;;;4967921;28;20031;-66
2021/07/24 10:56:48;;;;;;;10.75;8.27;;;25.20;72.10;;;;;;4969598;28;20544;-65
2021/07/24 10:59:17;;;;;;;9.27;8.00;;;25.20;70.10;;;;;;4968188;28;20527;-66
2021/07/24 11:01:56;;;;;;;11.55;9.43;;;25.30;69.80;;;;;;4961612;28;20540;-65
2021/07/24 11:04:39;;;;;;;11.48;8.98;;;25.40;68.50;;;;;;4967433;28;20097;-65
2021/07/24 11:07:13;;;;;;;10.23;8.90;;;25.50;68.10;;;;;;4964873;28;20038;-66
2021/07/24 11:09:47;;;;;;;11.00;9.07;;;25.50;68.10;;;;;;4965695;28;20498;-66
2021/07/24 11:12:16;;;;;;;12.85;8.65;;;25.50;67.90;;;;;;4967431;28;20053;-66
2021/07/24 11:14:49;;;;;;;11.25;8.95;;;25.50;67.70;;;;;;4965889;28;20125;-66
2021/07/24 11:17:19;;;;;;;11.27;8.90;;;25.50;68.00;;;;;;4966675;28;20033;-66
2021/07/24 11:19:50;;;;;;;9.25;8.35;;;25.40;69.70;;;;;;4964953;28;20501;-66
2021/07/24 11:22:25;;;;;;;13.48;9.75;;;25.30;70.20;;;;;;4967347;28;20043;-66
2021/07/24 11:24:50;;;;;;;15.35;10.52;;;25.30;71.20;;;;;;4966263;28;20375;-66
2021/07/24 11:27:27;;;;;;;11.80;9.60;;;25.20;70.50;;;;;;4967679;28;20519;-65
2021/07/24 11:29:53;;;;;;;12.23;9.57;;;25.00;70.60;;;;;;4967497;28;20046;-66
2021/07/24 11:32:26;;;;;;;11.10;9.27;;;24.90;69.90;;;;;;4968085;28;20245;-65
2021/07/24 11:35:08;;;;;;;13.05;8.75;;;24.80;70.00;;;;;;4968159;28;20118;-65
2021/07/24 11:37:34;;;;;;;9.30;8.13;;;24.70;69.60;;;;;;4961463;28;20190;-65
2021/07/24 11:40:00;;;;;;;11.77;8.13;;;24.50;69.00;;;;;;4961676;28;20168;-66
2021/07/24 11:42:26;;;;;;;10.27;7.28;;;24.40;68.50;;;;;;4965159;28;20041;-66
2021/07/24 11:44:51;;;;;;;9.30;7.05;;;24.30;68.80;;;;;;4966743;28;20042;-65
2021/07/24 11:47:17;;;;;;;10.55;7.40;;;24.10;68.50;;;;;;4962636;28;20487;-65
2021/07/24 11:49:44;;;;;;;11.23;7.18;;;24.00;68.50;;;;;;4963770;28;20042;-66
2021/07/24 11:52:10;;;;;;;9.73;6.82;;;23.80;69.00;;;;;;4960385;28;20039;-66
2021/07/24 11:54:36;;;;;;;10.50;7.40;;;23.70;69.30;;;;;;4966530;28;20509;-65
2021/07/24 11:57:04;;;;;;;9.57;6.68;;;23.50;69.70;;;;;;4969049;28;20035;-65
2021/07/24 11:59:32;;;;;;;8.55;6.60;;;23.40;70.00;;;;;;4969445;28;20417;-65
2021/07/24 12:01:59;;;;;;;9.55;6.80;;;23.20;70.70;;;;;;4966328;28;21058;-65
2021/07/24 12:04:25;;;;;;;11.02;5.78;;;23.10;71.00;;;;;;4965759;28;20165;-65
2021/07/24 12:06:59;;;;;;;8.32;6.18;;;23.00;71.50;;;;;;4968498;28;20044;-65
2021/07/24 12:09:26;;;;;;;7.15;5.45;;;22.90;72.80;;;;;;4967947;28;20043;-65
2021/07/24 12:11:53;;;;;;;8.70;6.03;;;22.80;71.40;;;;;;4964916;28;20520;-66
2021/07/24 12:14:22;;;;;;;7.45;5.93;;;22.70;71.90;;;;;;4967044;28;20532;-66
2021/07/24 12:16:47;;;;;;;8.50;5.85;;;22.60;72.10;;;;;;4967033;28;20042;-66
2021/07/24 12:19:17;;;;;;;5.88;4.88;;;22.50;72.20;;;;;;4966295;28;20035;-66
2021/07/24 12:21:45;;;;;;;8.38;5.20;;;22.50;72.50;;;;;;4968580;28;20034;-66
2021/07/24 12:24:11;;;;;;;6.50;5.07;;;22.40;72.50;;;;;;4966552;28;20553;-66
2021/07/24 12:26:44;;;;;;;7.28;5.38;;;22.40;73.20;;;;;;4969121;28;20043;-66
2021/07/24 12:29:10;;;;;;;10.48;5.38;;;22.40;73.80;;;;;;4967406;28;20085;-66
2021/07/24 12:31:42;;;;;;;9.13;5.90;;;22.40;74.20;;;;;;4967656;28;20469;-65
2021/07/24 12:34:18;;;;;;;5.85;5.07;;;22.30;74.40;;;;;;4966652;28;20031;-66
2021/07/24 12:36:58;;;;;;;12.65;5.93;;;22.30;74.40;;;;;;4964536;28;20039;-65
2021/07/24 12:39:25;;;;;;;7.93;5.38;;;22.10;74.70;;;;;;4966745;28;20089;-65